Time;durP1;ratioP1;P1;durP2;ratioP2;P2;SDS_P1;SDS_P2;PMS_P1;PMS_P2;Temp;Humidity;BMP_temperature;BMP_pressure;BME280_temperature;BME280_humidity;BME280_pressure;Samples;Min_cycle;Max_cycle;Signal;HPM_P1;HPM_P2
2022/09/07 00:00:42;;;;;;;6.37;3.42;;;;;;;9.08;58.32;101378.21;1744725;82;21674;-58
2022/09/07 00:03:50;;;;;;;5.97;3.52;;;;;;;9.06;58.42;101370.65;1738489;82;21221;-58
2022/09/07 00:06:55;;;;;;;5.80;3.50;;;;;;;9.04;58.48;101378.11;1744687;82;21702;-58
2022/09/07 00:10:03;;;;;;;8.53;3.65;;;;;;;8.99;58.51;101373.61;1723314;82;21718;-58
2022/09/07 00:13:08;;;;;;;8.33;4.25;;;;;;;8.93;58.49;101366.83;1738584;82;21702;-58
2022/09/07 00:16:15;;;;;;;7.03;3.27;;;;;;;8.88;58.51;101370.97;1744794;82;21173;-58
2022/09/07 00:19:22;;;;;;;6.78;3.75;;;;;;;8.81;58.53;101367.09;1725930;82;21576;-58
2022/09/07 00:22:31;;;;;;;9.33;3.95;;;;;;;8.73;58.52;101369.66;1744606;82;21181;-58
2022/09/07 00:25:38;;;;;;;7.53;3.98;;;;;;;8.64;58.55;101364.52;1710014;83;21212;-58
2022/09/07 00:28:46;;;;;;;8.80;4.03;;;;;;;8.56;58.56;101367.61;1698940;83;21267;-58
2022/09/07 00:31:53;;;;;;;8.00;4.10;;;;;;;8.47;58.61;101369.78;1744647;82;21194;-58
2022/09/07 00:34:58;;;;;;;8.23;4.25;;;;;;;8.37;58.66;101373.00;1744788;82;21216;-58
2022/09/07 00:38:05;;;;;;;7.83;3.75;;;;;;;8.25;58.55;101365.89;1744832;82;21220;-58
2022/09/07 00:41:10;;;;;;;7.83;3.80;;;;;;;8.15;58.53;101362.25;1717393;83;21212;-58
2022/09/07 00:45:09;;;;;;;6.53;4.25;;;;;;;8.03;58.47;101361.95;1718176;83;21228;-58
2022/09/07 00:48:20;;;;;;;8.58;4.30;;;;;;;7.96;58.58;101368.97;1718047;83;21222;-58
2022/09/07 00:51:43;;;;;;;5.45;3.62;;;;;;;7.88;58.80;101363.32;1699789;83;21201;-58
2022/09/07 00:54:52;;;;;;;11.15;4.08;;;;;;;7.83;58.93;101364.22;1715964;83;21213;-58
2022/09/07 00:57:59;;;;;;;6.28;3.80;;;;;;;7.78;59.08;101367.84;1689265;83;21213;-58
2022/09/07 01:01:05;;;;;;;7.12;4.05;;;;;;;7.73;59.19;101370.09;1716129;83;21852;-58
2022/09/07 01:04:10;;;;;;;7.50;4.28;;;;;;;7.69;59.32;101364.56;1716205;83;21749;-58
2022/09/07 01:07:17;;;;;;;5.90;4.00;;;;;;;7.65;59.34;101362.59;1715973;83;21769;-58
2022/09/07 01:10:23;;;;;;;7.15;3.60;;;;;;;7.61;59.38;101359.79;1715956;83;21236;-57
2022/09/07 01:13:28;;;;;;;5.87;3.75;;;;;;;7.55;59.39;101357.08;1705547;83;21766;-58
2022/09/07 01:16:58;;;;;;;7.10;3.52;;;;;;;7.47;59.24;101367.78;1709432;83;21208;-58
2022/09/07 01:20:28;;;;;;;5.15;3.52;;;;;;;7.38;59.15;101358.17;1715876;83;21224;-58
2022/09/07 01:23:54;;;;;;;5.33;3.10;;;;;;;7.31;59.31;101356.47;1715961;83;21288;-58
2022/09/07 01:27:16;;;;;;;7.62;4.03;;;;;;;7.25;59.41;101361.08;1715878;83;21169;-58
2022/09/07 01:30:29;;;;;;;6.25;3.85;;;;;;;7.20;59.56;101359.73;1716110;83;21193;-58
2022/09/07 01:34:07;;;;;;;7.22;4.03;;;;;;;7.14;59.66;101355.69;1716027;83;21279;-58
2022/09/07 01:37:42;;;;;;;5.25;3.52;;;;;;;7.11;59.76;101370.05;1720452;82;21177;-58
2022/09/07 01:40:57;;;;;;;4.87;3.02;;;;;;;7.07;59.83;101369.44;1711495;83;21177;-58
2022/09/07 01:44:09;;;;;;;;;;;;;;;6.96;59.59;101367.27;1730605;82;21739;-58
2022/09/07 01:47:30;;;;;;;5.53;2.98;;;;;;;6.83;59.39;101365.20;1742301;82;20194;-58
2022/09/07 01:50:52;;;;;;;6.45;3.70;;;;;;;6.72;59.39;101364.75;1731491;82;21978;-58
2022/09/07 01:54:07;;;;;;;6.90;4.10;;;;;;;6.68;59.53;101371.42;1715313;82;21268;-58
2022/09/07 01:57:17;;;;;;;8.23;4.58;;;;;;;6.68;59.84;101364.61;1733984;83;21343;-58
2022/09/07 02:00:25;;;;;;;8.60;4.37;;;;;;;6.68;60.03;101367.34;1716215;82;21917;-58
2022/09/07 02:03:59;;;;;;;9.18;3.35;;;;;;;6.69;60.16;101364.13;1734031;82;21320;-58
2022/09/07 02:07:19;;;;;;;6.90;3.62;;;;;;;6.68;60.24;101368.70;1734814;82;21173;-58
2022/09/07 02:10:30;;;;;;;8.25;4.08;;;;;;;6.68;60.33;101370.55;1734142;82;21177;-58
2022/09/07 02:13:45;;;;;;;5.78;3.72;;;;;;;6.64;60.28;101364.52;1734548;82;21362;-58
2022/09/07 02:17:07;;;;;;;8.98;3.90;;;;;;;6.54;60.02;101368.98;1734039;82;21793;-57
2022/09/07 02:20:20;;;;;;;6.10;3.97;;;;;;;6.48;60.00;101370.84;1734247;82;21264;-57
2022/09/07 02:23:28;;;;;;;7.35;3.98;;;;;;;6.47;60.24;101369.61;1734543;82;21272;-57
2022/09/07 02:26:36;;;;;;;6.62;4.00;;;;;;;6.43;60.21;101368.12;1717539;83;21674;-57
2022/09/07 02:29:46;;;;;;;6.60;4.40;;;;;;;6.39;60.29;101362.05;1733934;82;21694;-57
2022/09/07 02:32:49;;;;;;;6.78;4.33;;;;;;;6.34;60.19;101358.87;1734064;83;21225;-58
2022/09/07 02:35:55;;;;;;;6.12;4.45;;;;;;;6.31;60.25;101366.41;1734133;82;21241;-58
2022/09/07 02:39:01;;;;;;;9.53;4.65;;;;;;;6.28;60.26;101361.23;1733403;82;21223;-57
2022/09/07 02:42:06;;;;;;;7.65;3.92;;;;;;;6.24;60.32;101363.32;1733959;82;21210;-58
2022/09/07 02:45:12;;;;;;;7.83;4.60;;;;;;;6.24;60.51;101361.09;1716217;82;21170;-58
2022/09/07 02:48:47;;;;;;;7.85;4.83;;;;;;;6.25;60.65;101358.77;1715872;82;21238;-57
2022/09/07 02:52:20;;;;;;;9.28;4.17;;;;;;;6.25;60.77;101362.32;1734450;81;21221;-58
2022/09/07 02:55:51;;;;;;;6.60;4.60;;;;;;;6.22;60.73;101366.66;1734312;80;21343;-57
2022/09/07 02:59:37;;;;;;;7.05;4.15;;;;;;;6.19;60.81;101358.75;1733494;82;21229;-57
2022/09/07 03:03:07;;;;;;;8.18;4.62;;;;;;;6.18;60.83;101367.91;1754671;82;21233;-58
2022/09/07 03:06:18;;;;;;;8.85;4.15;;;;;;;6.10;60.62;101364.94;1746074;82;21193;-57
2022/09/07 03:09:29;;;;;;;8.25;4.22;;;;;;;6.05;60.66;101370.75;1719008;82;21758;-57
2022/09/07 03:12:51;;;;;;;7.35;4.65;;;;;;;6.03;60.77;101362.33;1733319;83;21230;-57
2022/09/07 03:15:58;;;;;;;8.78;5.20;;;;;;;6.00;60.71;101362.58;1733261;83;21328;-55
2022/09/07 03:19:03;;;;;;;6.75;4.72;;;;;;;5.97;60.72;101373.70;1726019;83;21224;-57
2022/09/07 03:22:11;;;;;;;10.68;5.05;;;;;;;5.97;60.85;101366.91;1733602;82;21750;-57
2022/09/07 03:25:16;;;;;;;8.20;5.42;;;;;;;5.99;61.01;101371.73;1733517;83;21213;-57
2022/09/07 03:28:22;;;;;;;9.85;5.20;;;;;;;6.02;61.15;101368.24;1741643;82;21228;-57
2022/09/07 03:31:27;;;;;;;8.30;5.25;;;;;;;6.02;61.11;101364.17;1741249;82;21185;-57
2022/09/07 03:34:32;;;;;;;10.38;5.10;;;;;;;6.00;61.03;101360.73;1733999;82;21761;-57
2022/09/07 03:37:37;;;;;;;9.33;5.03;;;;;;;6.01;61.08;101357.02;1734657;82;21220;-57
2022/09/07 03:40:42;;;;;;;7.53;4.65;;;;;;;6.03;61.21;101361.84;1715494;82;21177;-57
2022/09/07 03:43:47;;;;;;;7.55;4.70;;;;;;;6.05;61.27;101366.67;1733954;82;21749;-57
2022/09/07 03:46:53;;;;;;;10.25;5.35;;;;;;;6.08;61.37;101369.14;1734125;82;21678;-57
2022/09/07 03:50:00;;;;;;;7.20;5.10;;;;;;;6.12;61.49;101373.81;1734117;82;21174;-57
2022/09/07 03:53:05;;;;;;;10.35;5.50;;;;;;;6.16;61.57;101365.80;1734190;82;21197;-58
2022/09/07 03:56:15;;;;;;;10.08;5.42;;;;;;;6.20;61.66;101374.06;1729675;82;21212;-58
2022/09/07 03:59:20;;;;;;;8.50;5.20;;;;;;;6.26;61.76;101371.35;1721176;82;21200;-58
2022/09/07 04:02:25;;;;;;;8.95;5.25;;;;;;;6.33;61.81;101369.88;1709591;84;21189;-57
2022/09/07 04:05:32;;;;;;;11.00;6.08;;;;;;;6.37;61.86;101369.50;1720794;83;21236;-58
2022/09/07 04:08:39;;;;;;;13.45;8.20;;;;;;;6.44;61.93;101381.59;1720091;83;21232;-57
2022/09/07 04:11:47;;;;;;;12.58;6.37;;;;;;;6.50;61.99;101385.16;1719791;83;21201;-58
2022/09/07 04:14:55;;;;;;;12.53;6.47;;;;;;;6.58;62.04;101387.28;1720626;83;21207;-57
2022/09/07 04:18:01;;;;;;;13.90;5.60;;;;;;;6.65;62.08;101390.72;1723892;83;21187;-57
2022/09/07 04:21:09;;;;;;;14.23;6.25;;;;;;;6.72;62.12;101393.32;1720574;83;21205;-58
2022/09/07 04:24:16;;;;;;;14.73;6.10;;;;;;;6.80;62.18;101392.16;1720283;83;21239;-57
2022/09/07 04:27:22;;;;;;;10.18;6.28;;;;;;;6.89;62.21;101393.27;1695772;83;21252;-58
2022/09/07 04:30:27;;;;;;;21.87;12.68;;;;;;;6.95;62.21;101396.34;1720104;83;21216;-57
2022/09/07 04:33:33;;;;;;;10.15;6.33;;;;;;;7.02;62.23;101395.34;1714564;83;21268;-57
2022/09/07 04:36:38;;;;;;;11.93;6.47;;;;;;;7.12;62.31;101395.78;1713186;84;21757;-58
2022/09/07 04:39:44;;;;;;;11.78;6.08;;;;;;;7.22;62.38;101399.47;1713533;84;21185;-58
2022/09/07 04:42:52;;;;;;;10.72;5.83;;;;;;;7.31;62.44;101390.51;1686125;82;21749;-58
2022/09/07 04:45:57;;;;;;;7.95;5.22;;;;;;;7.42;62.50;101399.15;1731105;82;21311;-57
2022/09/07 04:49:04;;;;;;;9.73;5.67;;;;;;;7.52;62.56;101402.80;1691593;84;21300;-57
2022/09/07 04:52:10;;;;;;;14.05;7.92;;;;;;;7.63;62.66;101401.38;1712871;84;21916;-58
2022/09/07 04:55:16;;;;;;;10.98;5.60;;;;;;;7.76;62.77;101405.26;1712885;84;21216;-57
2022/09/07 04:58:21;;;;;;;11.18;5.03;;;;;;;7.90;62.86;101406.28;1695199;82;21240;-56
2022/09/07 05:01:30;;;;;;;8.38;5.42;;;;;;;8.04;62.94;101405.44;1711149;83;21224;-56
2022/09/07 05:04:35;;;;;;;12.60;5.75;;;;;;;8.18;63.04;101408.34;1715932;82;21267;-56
2022/09/07 05:07:42;;;;;;;12.68;5.62;;;;;;;8.31;63.09;101409.86;1716097;83;21237;-57
2022/09/07 05:10:59;;;;;;;8.63;5.17;;;;;;;8.47;63.17;101417.53;1731949;81;21792;-58
2022/09/07 05:14:10;;;;;;;8.15;4.97;;;;;;;8.61;63.22;101414.46;1732564;81;21828;-59
2022/09/07 05:17:18;;;;;;;7.67;4.12;;;;;;;8.76;63.25;101417.16;1702252;83;21292;-58
2022/09/07 05:20:26;;;;;;;7.53;4.00;;;;;;;8.90;63.30;101414.90;1703388;83;21212;-59
2022/09/07 05:23:33;;;;;;;8.80;4.55;;;;;;;9.03;63.30;101410.53;1718055;83;21711;-60
2022/09/07 05:26:41;;;;;;;6.70;4.30;;;;;;;9.16;63.29;101407.54;1717680;83;21200;-59
2022/09/07 05:29:58;;;;;;;6.12;3.98;;;;;;;9.29;63.30;101408.13;1718472;83;21497;-59
2022/09/07 05:33:11;;;;;;;6.80;4.20;;;;;;;9.42;63.33;101415.03;1718684;83;21228;-60
2022/09/07 05:36:15;;;;;;;5.92;3.77;;;;;;;9.55;63.33;101408.78;1718908;83;21809;-56
2022/09/07 05:39:21;;;;;;;6.30;3.45;;;;;;;9.68;63.36;101409.85;1691992;83;21298;-58
2022/09/07 05:42:30;;;;;;;5.55;3.33;;;;;;;9.81;63.37;101412.66;1703420;83;21205;-57
2022/09/07 05:45:36;;;;;;;7.28;3.87;;;;;;;9.94;63.38;101411.83;1731617;83;21201;-56
2022/09/07 05:48:42;;;;;;;6.70;4.10;;;;;;;10.05;63.36;101410.28;1718483;81;21225;-59
2022/09/07 05:51:49;;;;;;;8.90;3.80;;;;;;;10.18;63.36;101405.40;1734105;81;21170;-59
2022/09/07 05:54:56;;;;;;;5.42;2.75;;;;;;;10.29;63.35;101410.69;1726989;83;21237;-58
2022/09/07 05:58:03;;;;;;;5.37;2.92;;;;;;;10.40;63.34;101414.61;1723266;81;21215;-57
2022/09/07 06:01:14;;;;;;;4.20;2.30;;;;;;;10.50;63.28;101412.72;1733229;82;21198;-60
2022/09/07 06:04:22;;;;;;;5.85;2.62;;;;;;;10.63;63.30;101415.11;1724981;82;21650;-59
2022/09/07 06:07:28;;;;;;;4.92;2.70;;;;;;;10.76;63.25;101414.75;1697346;83;21212;-59
2022/09/07 06:10:34;;;;;;;7.15;2.25;;;;;;;10.88;63.24;101414.92;1724333;82;21773;-59
2022/09/07 06:13:45;;;;;;;5.37;3.08;;;;;;;11.00;63.26;101413.19;1739962;82;21224;-59
2022/09/07 06:16:52;;;;;;;3.95;2.30;;;;;;;11.14;63.29;101414.03;1707868;82;21517;-59
2022/09/07 06:20:02;;;;;;;7.50;2.50;;;;;;;11.25;63.23;101422.03;1712939;83;21279;-58
2022/09/07 06:23:08;;;;;;;5.05;2.22;;;;;;;11.33;63.18;101416.64;1728207;80;21234;-58
2022/09/07 06:26:29;;;;;;;5.33;2.00;;;;;;;11.52;63.15;101420.60;1878488;76;22195;-56
2022/09/07 06:29:45;;;;;;;3.65;2.00;;;;;;;11.57;63.13;101419.63;1763810;81;21236;-58
2022/09/07 06:32:52;;;;;;;7.22;2.12;;;;;;;11.68;63.11;101422.17;1800351;79;21231;-58
2022/09/07 06:36:05;;;;;;;5.30;2.02;;;;;;;11.81;63.04;101431.36;1731530;82;21182;-58
2022/09/07 06:39:10;;;;;;;3.08;1.52;;;;;;;11.93;63.03;101434.20;1734648;82;21233;-58
2022/09/07 06:42:32;;;;;;;2.60;1.57;;;;;;;12.03;62.99;101426.20;1775592;79;21216;-60
2022/09/07 06:45:42;;;;;;;2.98;1.92;;;;;;;12.15;62.91;101425.95;1789097;79;21216;-58
2022/09/07 06:48:50;;;;;;;3.62;1.47;;;;;;;12.24;62.88;101427.22;1804043;79;21204;-56
2022/09/07 06:51:56;;;;;;;4.72;1.45;;;;;;;12.35;62.81;101432.47;1804202;79;21201;-57
2022/09/07 06:55:03;;;;;;;3.75;1.75;;;;;;;12.44;62.71;101428.74;1786269;79;21275;-63
2022/09/07 06:58:13;;;;;;;2.45;1.42;;;;;;;12.53;62.64;101425.01;1786431;80;21210;-57
2022/09/07 07:01:25;;;;;;;4.12;1.80;;;;;;;12.62;62.55;101432.80;1755559;81;21254;-56
2022/09/07 07:04:34;;;;;;;;;;;;;;;12.69;62.48;101441.59;1751921;81;21270;-58
2022/09/07 07:07:39;;;;;;;2.47;1.50;;;;;;;12.76;62.43;101433.55;1776494;79;20259;-58
2022/09/07 07:10:48;;;;;;;2.95;1.67;;;;;;;12.82;62.37;101437.02;1761200;80;21196;-56
2022/09/07 07:13:55;;;;;;;5.10;1.72;;;;;;;12.90;62.35;101445.30;1778391;80;21217;-58
2022/09/07 07:17:03;;;;;;;4.78;1.45;;;;;;;12.98;62.34;101436.58;1791662;79;21180;-58
2022/09/07 07:20:14;;;;;;;5.42;2.85;;;;;;;13.09;62.35;101438.19;1765646;81;21205;-55
2022/09/07 07:23:30;;;;;;;4.85;1.67;;;;;;;13.21;62.36;101441.84;1792849;79;21244;-57
2022/09/07 07:26:40;;;;;;;2.00;1.30;;;;;;;13.35;62.29;101438.44;1699351;81;21240;-57
2022/09/07 07:29:51;;;;;;;2.47;1.37;;;;;;;13.44;62.18;101435.20;1727655;82;21193;-57
2022/09/07 07:33:01;;;;;;;2.75;1.10;;;;;;;13.48;62.05;101436.07;1757430;81;21237;-58
2022/09/07 07:36:19;;;;;;;1.70;1.20;;;;;;;13.51;61.93;101430.73;1797617;79;21321;-59
2022/09/07 07:39:26;;;;;;;2.30;1.12;;;;;;;13.57;61.79;101422.33;1792580;80;21233;-58
2022/09/07 07:42:34;;;;;;;2.30;1.00;;;;;;;13.65;61.68;101422.34;1750632;81;21337;-58
2022/09/07 07:45:39;;;;;;;5.22;1.20;;;;;;;13.73;61.61;101420.98;1719586;83;21288;-58
2022/09/07 07:48:46;;;;;;;8.23;1.25;;;;;;;13.80;61.55;101422.86;1698878;84;21843;-59
2022/09/07 07:51:54;;;;;;;1.82;1.00;;;;;;;13.90;61.51;101417.19;1705165;82;21230;-57
2022/09/07 07:55:01;;;;;;;1.90;0.95;;;;;;;13.98;61.42;101419.44;1772260;80;21688;-58
2022/09/07 07:58:10;;;;;;;1.60;1.00;;;;;;;14.07;61.35;101419.77;1772257;81;21180;-58
2022/09/07 08:01:22;;;;;;;2.20;1.00;;;;;;;14.17;61.29;101414.95;1760224;81;21161;-58
2022/09/07 08:04:28;;;;;;;2.02;1.10;;;;;;;14.26;61.21;101402.05;1758304;81;21923;-59
2022/09/07 08:07:36;;;;;;;1.52;1.07;;;;;;;14.35;61.06;101405.15;1765362;80;21339;-54
2022/09/07 08:10:46;;;;;;;3.10;1.25;;;;;;;14.39;60.90;101399.11;1765419;80;21324;-55
2022/09/07 08:13:54;;;;;;;1.98;1.10;;;;;;;14.50;60.83;101400.11;1764418;81;21252;-56
2022/09/07 08:17:01;;;;;;;3.05;1.20;;;;;;;14.65;60.77;101387.30;1771985;81;21264;-56
2022/09/07 08:20:10;;;;;;;2.12;1.25;;;;;;;14.82;60.69;101395.00;1777671;80;21323;-54
2022/09/07 08:23:16;;;;;;;2.08;1.25;;;;;;;14.98;60.52;101393.55;1757514;80;21191;-53
2022/09/07 08:26:24;;;;;;;1.87;0.90;;;;;;;15.13;60.36;101386.22;1794563;78;21209;-54
2022/09/07 08:29:34;;;;;;;2.20;1.10;;;;;;;15.24;60.19;101383.59;1788044;80;21280;-55
2022/09/07 08:32:41;;;;;;;1.32;0.80;;;;;;;15.41;60.12;101370.93;1781237;80;21594;-54
2022/09/07 08:36:06;;;;;;;2.72;1.60;;;;;;;15.52;59.91;101374.64;1763374;80;21757;-57
2022/09/07 08:39:12;;;;;;;2.37;1.05;;;;;;;15.61;59.73;101364.38;1793171;80;21874;-56
2022/09/07 08:42:46;;;;;;;2.27;1.10;;;;;;;15.80;59.63;101360.61;1792406;80;21215;-56
2022/09/07 08:45:57;;;;;;;1.20;0.90;;;;;;;16.02;59.45;101354.70;1793217;79;21269;-52
2022/09/07 08:49:04;;;;;;;1.62;0.90;;;;;;;16.16;59.16;101361.63;1792202;80;21207;-56
2022/09/07 08:52:20;;;;;;;3.35;1.15;;;;;;;16.15;58.89;101359.92;1775346;80;21708;-54
2022/09/07 08:55:43;;;;;;;4.53;1.30;;;;;;;16.15;58.68;101367.34;1792180;80;21175;-55
2022/09/07 08:58:58;;;;;;;1.82;1.10;;;;;;;16.17;58.60;101359.19;1758915;80;21719;-55
2022/09/07 09:02:05;;;;;;;1.30;0.85;;;;;;;16.34;58.51;101356.62;1754757;81;21209;-57
2022/09/07 09:05:33;;;;;;;1.17;0.78;;;;;;;16.56;58.39;101353.97;1754771;81;21305;-56
2022/09/07 09:09:07;;;;;;;1.22;0.85;;;;;;;16.77;58.20;101344.38;1761873;80;21230;-56
2022/09/07 09:12:42;;;;;;;2.00;1.00;;;;;;;16.83;57.91;101348.62;1740322;82;21212;-54
2022/09/07 09:16:22;;;;;;;2.37;1.40;;;;;;;16.88;57.66;101345.27;1782693;80;21170;-55
2022/09/07 09:19:50;;;;;;;1.67;1.07;;;;;;;16.85;57.38;101347.04;1792905;80;21205;-56
2022/09/07 09:23:01;;;;;;;2.30;0.90;;;;;;;16.85;57.23;101342.89;1792605;80;21204;-54
2022/09/07 09:26:10;;;;;;;1.05;0.88;;;;;;;16.99;57.12;101331.80;1792069;80;21181;-56
2022/09/07 09:29:27;;;;;;;1.40;0.82;;;;;;;17.07;56.82;101337.23;1752772;79;21234;-57
2022/09/07 09:32:47;;;;;;;1.92;1.20;;;;;;;17.04;56.67;101321.02;1746386;80;21771;-55
2022/09/07 09:35:59;;;;;;;3.47;1.27;;;;;;;17.08;56.60;101329.76;1748920;81;21213;-56
2022/09/07 09:39:05;;;;;;;2.22;1.05;;;;;;;17.19;56.60;101323.20;1739988;81;21235;-56
2022/09/07 09:42:22;;;;;;;1.30;0.85;;;;;;;17.45;56.55;101322.66;1719729;82;21171;-56
2022/09/07 09:45:28;;;;;;;1.75;1.10;;;;;;;17.60;56.25;101317.38;1703237;83;21757;-53
2022/09/07 09:48:44;;;;;;;1.98;1.10;;;;;;;17.60;55.91;101324.30;1646130;85;21216;-56
2022/09/07 09:51:55;;;;;;;3.62;1.30;;;;;;;17.56;55.71;101323.52;1711573;81;21241;-54
2022/09/07 09:55:02;;;;;;;3.45;1.15;;;;;;;17.44;55.57;101322.31;1737988;81;21201;-56
2022/09/07 09:58:15;;;;;;;1.75;0.90;;;;;;;17.40;55.51;101320.45;1735945;82;21375;-55
2022/09/07 10:01:25;;;;;;;1.92;0.90;;;;;;;17.43;55.50;101324.73;1734196;82;21726;-55
2022/09/07 10:04:37;;;;;;;1.85;1.10;;;;;;;17.50;55.37;101318.78;1746031;81;21225;-53
2022/09/07 10:07:32;;;;;;;1.07;0.82;;;;;;;17.60;55.23;101318.77;1734869;81;21319;-52
2022/09/07 10:10:31;;;;;;;2.22;1.30;;;;;;;17.67;55.11;101312.77;1715178;82;21189;-56
2022/09/07 10:13:30;;;;;;;3.77;1.20;;;;;;;17.74;54.92;101311.45;1718377;82;21205;-55
2022/09/07 10:16:24;;;;;;;3.55;2.62;;;;;;;17.81;54.83;101326.20;1732453;81;21327;-55
2022/09/07 10:19:42;;;;;;;4.03;1.45;;;;;;;17.88;54.70;101308.59;1723679;82;22045;-54
2022/09/07 10:22:59;;;;;;;3.65;1.47;;;;;;;17.91;54.48;101311.48;1716658;83;21339;-54
2022/09/07 10:26:07;;;;;;;2.42;1.30;;;;;;;17.97;54.39;101312.06;1708295;83;21704;-54
2022/09/07 10:29:26;;;;;;;4.95;1.50;;;;;;;18.07;54.24;101308.41;1689330;80;21321;-54
2022/09/07 10:33:08;;;;;;;2.58;1.40;;;;;;;18.15;54.09;101312.42;1781983;79;21758;-54
2022/09/07 10:36:36;;;;;;;4.92;2.52;;;;;;;18.20;53.87;101316.83;1752956;81;21221;-55
2022/09/07 10:39:49;;;;;;;3.65;1.65;;;;;;;18.11;53.54;101319.41;1799029;79;21765;-56
2022/09/07 10:43:08;;;;;;;2.55;1.40;;;;;;;18.00;53.42;101307.50;1787043;80;21177;-54
2022/09/07 10:46:53;;;;;;;3.10;1.17;;;;;;;18.01;53.33;101306.97;1765241;81;21260;-55
2022/09/07 10:50:06;;;;;;;4.72;1.22;;;;;;;18.08;53.28;101300.94;1802981;79;21181;-54
2022/09/07 10:53:36;;;;;;;2.05;1.20;;;;;;;18.18;53.12;101305.08;1804374;79;21367;-55
2022/09/07 10:56:47;;;;;;;5.33;1.17;;;;;;;18.22;52.95;101306.38;1803445;79;21196;-55
2022/09/07 11:00:15;;;;;;;3.13;1.60;;;;;;;18.26;52.80;101295.74;1804117;79;21213;-54
2022/09/07 11:03:45;;;;;;;1.72;1.30;;;;;;;18.31;52.73;101298.77;1787643;79;21189;-56
2022/09/07 11:06:59;;;;;;;2.90;1.20;;;;;;;18.36;52.62;101299.02;1792687;79;21221;-54
2022/09/07 11:10:09;;;;;;;3.62;1.37;;;;;;;18.36;52.39;101287.38;1755611;80;21234;-56
2022/09/07 11:13:19;;;;;;;3.83;1.55;;;;;;;18.48;52.27;101285.79;1791999;79;21706;-56
2022/09/07 11:16:36;;;;;;;3.58;1.20;;;;;;;18.52;52.10;101280.70;1802891;79;21213;-56
2022/09/07 11:19:59;;;;;;;3.10;1.37;;;;;;;18.54;51.92;101281.33;1770518;79;21240;-58
2022/09/07 11:23:27;;;;;;;3.22;1.27;;;;;;;18.54;51.72;101278.55;1770789;81;21204;-58
2022/09/07 11:26:40;;;;;;;1.70;1.20;;;;;;;18.48;51.54;101274.70;1769497;81;21189;-56
2022/09/07 11:29:59;;;;;;;3.95;1.37;;;;;;;18.38;51.34;101276.98;1783799;79;21213;-56
2022/09/07 11:33:21;;;;;;;4.92;1.40;;;;;;;18.25;51.24;101275.47;1776363;79;21204;-57
2022/09/07 11:36:28;;;;;;;1.22;1.00;;;;;;;18.26;51.23;101275.82;1803858;79;21711;-57
2022/09/07 11:40:03;;;;;;;2.33;1.32;;;;;;;18.25;51.01;101269.93;1798050;79;21332;-55
2022/09/07 11:43:18;;;;;;;2.00;1.37;;;;;;;18.23;50.89;101269.82;1772023;79;21267;-57
2022/09/07 11:46:27;;;;;;;3.37;1.50;;;;;;;18.29;50.79;101265.70;1784672;79;21363;-59
2022/09/07 11:49:34;;;;;;;2.12;1.17;;;;;;;18.38;50.69;101253.93;1787165;79;21226;-57
2022/09/07 11:52:47;;;;;;;2.47;1.40;;;;;;;18.51;50.62;101253.48;1718651;82;21222;-55
2022/09/07 11:55:54;;;;;;;3.17;1.50;;;;;;;18.62;50.39;101257.05;1726712;82;21727;-55
2022/09/07 11:59:15;;;;;;;2.67;1.50;;;;;;;18.67;50.17;101252.27;1720351;82;21288;-56
2022/09/07 12:02:51;;;;;;;5.12;2.25;;;;;;;18.74;50.08;101249.00;1717661;82;21343;-57
2022/09/07 12:06:33;;;;;;;2.02;1.60;;;;;;;18.86;49.96;101246.80;1704516;84;21213;-58
2022/09/07 12:10:08;;;;;;;1.72;1.25;;;;;;;18.97;49.76;101240.64;1721677;82;21244;-56
2022/09/07 12:13:41;;;;;;;2.42;1.40;;;;;;;18.99;49.66;101235.75;1705481;84;21379;-56
2022/09/07 12:17:16;;;;;;;2.65;1.37;;;;;;;19.14;49.53;101228.08;1771196;81;21228;-57
2022/09/07 12:20:33;;;;;;;5.40;1.47;;;;;;;19.17;49.24;101230.98;1771027;81;21573;-55
2022/09/07 12:23:40;;;;;;;6.83;1.82;;;;;;;19.13;48.95;101224.13;1770893;81;21228;-55
2022/09/07 12:26:51;;;;;;;2.42;1.40;;;;;;;19.11;48.81;101224.34;1771482;81;21228;-57
2022/09/07 12:30:11;;;;;;;3.70;1.67;;;;;;;19.20;48.83;101223.06;1771258;79;21225;-56
2022/09/07 12:33:38;;;;;;;7.33;1.75;;;;;;;19.22;48.63;101220.07;1772618;80;21220;-55
2022/09/07 12:37:07;;;;;;;5.05;1.70;;;;;;;19.18;48.43;101222.44;1744140;82;21232;-57
2022/09/07 12:40:39;;;;;;;3.02;1.45;;;;;;;19.14;48.23;101219.75;1773473;80;21710;-56
2022/09/07 12:43:58;;;;;;;2.60;1.50;;;;;;;19.09;48.12;101229.23;1743224;82;21232;-55
2022/09/07 12:47:33;;;;;;;4.45;1.57;;;;;;;19.02;47.97;101220.06;1756347;80;21759;-54
2022/09/07 12:50:46;;;;;;;3.72;2.40;;;;;;;18.96;47.89;101225.59;1772752;81;21216;-54
2022/09/07 12:54:08;;;;;;;2.72;1.70;;;;;;;18.96;47.82;101212.55;1774130;80;21240;-54
2022/09/07 12:57:32;;;;;;;;;;;;;;;19.03;47.65;101207.02;1746027;82;21216;-54
2022/09/07 13:00:57;;;;;;;2.95;1.70;;;;;;;19.14;47.36;101194.77;1743339;82;20530;-53
2022/09/07 13:04:33;;;;;;;3.85;1.50;;;;;;;19.17;47.13;101208.77;1737364;82;21236;-53
2022/09/07 13:08:29;;;;;;;19.12;7.75;;;;;;;19.11;47.08;101217.39;1773158;80;21240;-53
2022/09/07 13:11:43;;;;;;;9.00;4.55;;;;;;;18.96;46.96;101218.09;1714864;83;21351;-55
2022/09/07 13:14:53;;;;;;;5.58;2.90;;;;;;;18.71;46.78;101206.42;1773019;80;21197;-55
2022/09/07 13:18:10;;;;;;;3.52;1.80;;;;;;;18.50;46.67;101197.70;1733089;81;21662;-54
2022/09/07 13:21:20;;;;;;;12.33;6.00;;;;;;;18.43;46.66;101188.49;1713611;83;21722;-55
2022/09/07 13:24:55;;;;;;;13.95;5.97;;;;;;;18.47;46.65;101194.48;1773368;80;21677;-56
2022/09/07 13:28:24;;;;;;;3.65;2.17;;;;;;;18.52;46.61;101193.34;1773360;81;21274;-56
2022/09/07 13:36:40;;;;;;;3.67;1.77;;;;;;;18.87;46.49;101186.59;1880402;76;22206;-54
2022/09/07 13:39:52;;;;;;;3.30;1.52;;;;;;;18.94;46.41;101190.25;1830856;77;21561;-55
2022/09/07 13:43:02;;;;;;;3.85;2.02;;;;;;;19.06;46.13;101180.22;1813326;78;21181;-53
2022/09/07 13:46:14;;;;;;;3.10;1.40;;;;;;;19.14;46.07;101185.05;1833488;78;21327;-55
2022/09/07 13:49:35;;;;;;;2.87;1.47;;;;;;;19.13;45.76;101181.96;1825764;78;21687;-53
2022/09/07 13:52:50;;;;;;;4.58;2.47;;;;;;;18.93;45.50;101187.99;1831442;78;21222;-53
2022/09/07 13:56:35;;;;;;;17.98;13.45;;;;;;;18.78;45.42;101194.27;1764774;80;21209;-57
2022/09/07 13:59:42;;;;;;;7.97;5.75;;;;;;;18.64;45.33;101179.18;1801594;78;21260;-58
2022/09/07 14:02:53;;;;;;;9.60;6.80;;;;;;;18.57;45.31;101174.99;1796438;79;21232;-56
2022/09/07 14:06:38;;;;;;;3.67;2.37;;;;;;;18.55;45.26;101173.51;1782295;79;21240;-58
2022/09/07 14:09:48;;;;;;;6.78;4.35;;;;;;;18.52;45.14;101176.14;1748320;81;21213;-57
2022/09/07 14:13:01;;;;;;;6.08;3.30;;;;;;;18.41;45.04;101168.42;1819122;78;21672;-57
2022/09/07 14:16:07;;;;;;;58.40;37.63;;;;;;;18.38;44.96;101166.08;1808501;78;21208;-58
2022/09/07 14:19:26;;;;;;;13.43;7.90;;;;;;;18.32;44.86;101170.17;1767426;80;21385;-59
2022/09/07 14:22:39;;;;;;;7.22;3.35;;;;;;;18.21;44.74;101173.53;1769802;80;21227;-58
2022/09/07 14:25:49;;;;;;;13.00;6.97;;;;;;;18.14;44.71;101168.50;1795059;79;21168;-57
2022/09/07 14:29:02;;;;;;;5.65;1.90;;;;;;;18.11;44.64;101161.99;1814468;78;22104;-57
2022/09/07 14:32:11;;;;;;;8.88;3.08;;;;;;;18.06;44.56;101169.51;1810275;79;21254;-59
2022/09/07 14:35:24;;;;;;;5.58;2.20;;;;;;;17.99;44.43;101173.31;1810031;78;21192;-58
2022/09/07 14:38:38;;;;;;;12.35;6.20;;;;;;;17.87;44.30;101164.71;1811841;79;21244;-58
2022/09/07 14:41:49;;;;;;;9.60;4.83;;;;;;;17.76;44.28;101172.20;1766735;81;21222;-56
2022/09/07 14:45:02;;;;;;;6.90;2.77;;;;;;;17.68;44.27;101164.05;1843241;78;21168;-58
2022/09/07 14:48:19;;;;;;;4.92;2.30;;;;;;;17.66;44.27;101162.05;1842940;78;21965;-59
2022/09/07 14:51:35;;;;;;;3.37;1.87;;;;;;;17.62;44.19;101163.48;1842822;78;21188;-58
2022/09/07 14:54:43;;;;;;;7.62;4.58;;;;;;;17.57;44.12;101166.00;1842682;78;21219;-57
2022/09/07 14:57:48;;;;;;;4.83;2.65;;;;;;;17.51;44.05;101160.76;1826297;78;21192;-58
2022/09/07 15:01:03;;;;;;;14.18;8.78;;;;;;;17.47;44.00;101157.22;1833215;78;21193;-58
2022/09/07 15:04:15;;;;;;;7.47;4.58;;;;;;;17.50;43.96;101160.96;1827674;78;21208;-59
2022/09/07 15:07:45;;;;;;;10.00;3.30;;;;;;;17.49;43.85;101159.27;1829678;78;21227;-58
2022/09/07 15:10:54;;;;;;;8.83;4.80;;;;;;;17.42;43.85;101162.47;1805165;79;21204;-59